Time;durP1;ratioP1;P1;durP2;ratioP2;P2;SDS_P1;SDS_P2;PMS_P1;PMS_P2;Temp;Humidity;BMP_temperature;BMP_pressure;BME280_temperature;BME280_humidity;BME280_pressure;Samples;Min_cycle;Max_cycle;Signal;HPM_P1;HPM_P2
2022/11/12 00:00:31;;;;;;;8.95;7.95;;;8.60;93.80;;;;;;5024004;28;20904;-77
2022/11/12 00:02:58;;;;;;;9.35;8.55;;;8.60;93.80;;;;;;5023512;28;20442;-78
2022/11/12 00:05:25;;;;;;;9.00;8.10;;;8.60;93.80;;;;;;5023005;28;20438;-77
2022/11/12 00:07:53;;;;;;;9.47;8.43;;;8.60;93.80;;;;;;5022927;28;20449;-77
2022/11/12 00:10:20;;;;;;;8.75;7.95;;;8.60;93.70;;;;;;5022040;28;20431;-77
2022/11/12 00:12:47;;;;;;;8.55;7.85;;;8.60;93.70;;;;;;5020850;28;20443;-77
2022/11/12 00:15:14;;;;;;;9.38;8.48;;;8.60;93.80;;;;;;5024987;28;20435;-76
2022/11/12 00:17:42;;;;;;;8.50;7.80;;;8.60;93.60;;;;;;5023669;28;20443;-78
2022/11/12 00:20:09;;;;;;;8.80;8.00;;;8.50;93.60;;;;;;5024393;28;20438;-77
2022/11/12 00:22:36;;;;;;;8.45;7.55;;;8.50;93.60;;;;;;5017924;28;20431;-77
2022/11/12 00:25:05;;;;;;;8.75;8.05;;;8.50;93.70;;;;;;5021806;28;20554;-77
2022/11/12 00:27:33;;;;;;;8.60;7.80;;;8.50;93.80;;;;;;5023652;28;20445;-77
2022/11/12 00:30:00;;;;;;;8.77;7.97;;;8.40;93.90;;;;;;5021235;28;20431;-77
2022/11/12 00:32:26;;;;;;;8.85;7.95;;;8.40;94.00;;;;;;5020908;28;20439;-77
2022/11/12 00:34:53;;;;;;;8.70;8.00;;;8.40;94.10;;;;;;5023421;28;20518;-77
2022/11/12 00:37:22;;;;;;;8.10;7.40;;;8.40;94.30;;;;;;5023366;28;20439;-76
2022/11/12 00:39:48;;;;;;;9.10;8.20;;;8.30;94.70;;;;;;5020783;28;20427;-77
2022/11/12 00:42:17;;;;;;;8.57;7.78;;;8.30;94.30;;;;;;5022403;28;20430;-77
2022/11/12 00:44:43;;;;;;;8.68;7.88;;;8.30;94.30;;;;;;5023202;28;20432;-76
2022/11/12 00:47:10;;;;;;;8.88;8.00;;;8.20;94.50;;;;;;5022123;28;20431;-77
2022/11/12 00:49:37;;;;;;;8.52;7.72;;;8.20;94.60;;;;;;5020309;28;20431;-77
2022/11/12 00:52:04;;;;;;;8.30;7.50;;;8.20;94.60;;;;;;5021529;28;20535;-76
2022/11/12 00:54:31;;;;;;;8.00;7.22;;;8.20;94.70;;;;;;5019885;28;20927;-77
2022/11/12 00:56:57;;;;;;;8.30;7.60;;;8.20;94.60;;;;;;5022757;28;20435;-77
2022/11/12 00:59:25;;;;;;;9.52;8.52;;;8.20;94.60;;;;;;5024640;28;20431;-77
2022/11/12 01:01:52;;;;;;;8.27;7.57;;;8.20;94.50;;;;;;5021596;28;20435;-77
2022/11/12 01:04:19;;;;;;;7.60;6.90;;;8.20;94.40;;;;;;5031770;28;20494;-77
2022/11/12 01:06:46;;;;;;;8.45;7.70;;;8.20;94.30;;;;;;5042965;28;20437;-77
2022/11/12 01:09:13;;;;;;;7.60;6.90;;;8.10;94.20;;;;;;5021232;28;20430;-77
2022/11/12 01:11:41;;;;;;;8.00;6.97;;;8.10;94.00;;;;;;5019715;28;20439;-77
2022/11/12 01:14:09;;;;;;;7.95;7.25;;;8.10;94.10;;;;;;5020295;28;20459;-77
2022/11/12 01:16:39;;;;;;;7.93;7.22;;;8.10;94.10;;;;;;5019464;28;20450;-77
2022/11/12 01:19:07;;;;;;;7.80;7.10;;;8.10;94.00;;;;;;5020959;28;20437;-77
2022/11/12 01:21:37;;;;;;;7.60;6.90;;;8.10;94.00;;;;;;5021114;28;20475;-77
2022/11/12 01:24:04;;;;;;;7.97;7.20;;;8.00;93.90;;;;;;5020428;28;20430;-77
2022/11/12 01:26:30;;;;;;;7.40;6.80;;;8.00;94.00;;;;;;5022666;28;20438;-77
2022/11/12 01:28:58;;;;;;;7.95;7.20;;;8.10;94.00;;;;;;5026818;28;20450;-77
2022/11/12 01:31:26;;;;;;;8.05;7.35;;;8.00;94.00;;;;;;5026072;28;20442;-77
2022/11/12 01:33:57;;;;;;;8.25;7.40;;;8.00;94.10;;;;;;5025009;28;20881;-77
2022/11/12 01:36:25;;;;;;;7.43;6.72;;;8.00;94.20;;;;;;5026926;28;20426;-77
2022/11/12 01:38:52;;;;;;;7.80;7.00;;;7.90;94.30;;;;;;5024321;28;20431;-77
2022/11/12 01:41:22;;;;;;;8.00;7.30;;;7.90;94.30;;;;;;5017341;28;20541;-77
2022/11/12 01:44:06;;;;;;;7.95;7.25;;;7.90;94.40;;;;;;5024656;28;20447;-77
2022/11/12 01:46:34;;;;;;;8.25;7.45;;;8.00;94.40;;;;;;5023237;28;20441;-77
2022/11/12 01:49:06;;;;;;;7.70;7.00;;;7.90;94.30;;;;;;5024223;28;20446;-77
2022/11/12 01:51:37;;;;;;;8.15;7.43;;;7.90;94.20;;;;;;5019124;28;20773;-77
2022/11/12 01:54:07;;;;;;;7.57;6.88;;;7.90;94.30;;;;;;5025177;28;20434;-77
2022/11/12 01:56:35;;;;;;;8.05;7.25;;;7.90;94.30;;;;;;5023444;28;20742;-77
2022/11/12 01:59:04;;;;;;;7.97;7.28;;;7.80;94.30;;;;;;5025126;28;20844;-77
2022/11/12 02:01:31;;;;;;;7.80;7.20;;;7.80;94.40;;;;;;5023681;28;20430;-77
2022/11/12 02:03:58;;;;;;;7.72;7.03;;;7.80;94.50;;;;;;5023682;28;20444;-76
2022/11/12 02:06:26;;;;;;;7.72;7.00;;;7.80;94.80;;;;;;5024342;28;20513;-77
2022/11/12 02:08:53;;;;;;;8.15;6.70;;;7.80;94.60;;;;;;5024233;28;20438;-77
2022/11/12 02:11:21;;;;;;;8.10;7.30;;;7.80;94.30;;;;;;5025650;28;20526;-77
2022/11/12 02:14:00;;;;;;;7.43;6.72;;;7.80;94.10;;;;;;5023047;28;20443;-77
2022/11/12 02:16:31;;;;;;;7.53;6.90;;;7.80;94.10;;;;;;5021671;28;20421;-77
2022/11/12 02:18:58;;;;;;;7.72;7.03;;;7.80;94.50;;;;;;5026376;28;20454;-77
2022/11/12 02:21:27;;;;;;;7.70;7.10;;;7.70;94.10;;;;;;5024953;28;20426;-77
2022/11/12 02:24:02;;;;;;;7.53;6.82;;;7.80;94.10;;;;;;5024979;28;20442;-77
2022/11/12 02:26:32;;;;;;;8.00;7.20;;;7.70;94.10;;;;;;5025945;28;20769;-77
2022/11/12 02:28:59;;;;;;;7.70;7.00;;;7.70;94.20;;;;;;5025807;28;20572;-77
2022/11/12 02:31:26;;;;;;;8.30;6.53;;;7.70;94.20;;;;;;5024422;28;20889;-77
2022/11/12 02:33:53;;;;;;;7.25;6.65;;;7.70;94.20;;;;;;5026214;28;20434;-77
2022/11/12 02:36:20;;;;;;;7.90;7.10;;;7.70;94.20;;;;;;5023902;28;20519;-77
2022/11/12 02:38:49;;;;;;;8.32;7.53;;;7.70;94.20;;;;;;5022518;28;20430;-77
2022/11/12 02:41:15;;;;;;;7.30;6.70;;;7.70;94.20;;;;;;5022448;28;20438;-77
2022/11/12 02:43:44;;;;;;;7.10;6.50;;;7.60;94.20;;;;;;5021433;28;21071;-77
2022/11/12 02:46:11;;;;;;;7.40;6.70;;;7.60;94.20;;;;;;5021502;28;20541;-77
2022/11/12 02:48:38;;;;;;;7.60;6.90;;;7.60;94.30;;;;;;5026022;28;20427;-77
2022/11/12 02:51:05;;;;;;;7.70;7.10;;;7.60;94.40;;;;;;5019710;28;20913;-77
2022/11/12 02:53:32;;;;;;;7.72;7.13;;;7.60;94.30;;;;;;5023813;28;20871;-77
2022/11/12 02:56:01;;;;;;;8.10;7.40;;;7.60;94.30;;;;;;5025493;28;20559;-77
2022/11/12 02:58:28;;;;;;;7.50;6.90;;;7.60;94.30;;;;;;5024655;28;20440;-77
2022/11/12 03:00:56;;;;;;;8.30;7.50;;;7.60;94.20;;;;;;5025732;28;20445;-77
2022/11/12 03:03:23;;;;;;;7.82;7.20;;;7.60;94.20;;;;;;5020828;28;20435;-77
2022/11/12 03:05:56;;;;;;;8.30;7.60;;;7.60;94.20;;;;;;5020064;28;20512;-77
2022/11/12 03:08:23;;;;;;;7.75;7.05;;;7.50;94.20;;;;;;5024250;28;20900;-77
2022/11/12 03:10:50;;;;;;;7.88;7.18;;;7.50;94.20;;;;;;5019171;28;20468;-77
2022/11/12 03:13:18;;;;;;;7.77;6.97;;;7.50;94.30;;;;;;5022933;28;20434;-77
2022/11/12 03:15:45;;;;;;;7.87;7.17;;;7.50;94.30;;;;;;5022496;28;20489;-77
2022/11/12 03:18:12;;;;;;;7.70;7.00;;;7.50;94.40;;;;;;5020186;28;20508;-77
2022/11/12 03:20:39;;;;;;;8.05;7.45;;;7.50;94.30;;;;;;5016731;28;20852;-77
2022/11/12 03:23:08;;;;;;;8.40;7.70;;;7.50;94.10;;;;;;5019656;28;20431;-77
2022/11/12 03:25:36;;;;;;;8.00;7.30;;;7.50;94.00;;;;;;5021245;28;20431;-77
2022/11/12 03:28:05;;;;;;;8.48;7.70;;;7.50;94.00;;;;;;5022591;28;20816;-77
2022/11/12 03:30:35;;;;;;;8.00;7.40;;;7.50;94.00;;;;;;5019569;28;20459;-77
2022/11/12 03:33:02;;;;;;;8.23;7.53;;;7.40;94.10;;;;;;5021938;28;21137;-77
2022/11/12 03:35:30;;;;;;;8.80;7.90;;;7.40;94.10;;;;;;5023676;28;20567;-77
2022/11/12 03:37:57;;;;;;;9.27;8.38;;;7.40;94.30;;;;;;5023803;28;20441;-77
2022/11/12 03:40:24;;;;;;;9.48;8.57;;;7.40;94.20;;;;;;5032505;28;20458;-77
2022/11/12 03:42:53;;;;;;;8.90;8.20;;;7.40;94.10;;;;;;5038138;28;20489;-77
2022/11/12 03:45:21;;;;;;;8.70;7.90;;;7.40;94.00;;;;;;5038223;28;21275;-77
2022/11/12 03:47:51;;;;;;;8.68;7.97;;;7.40;94.00;;;;;;5038146;28;20438;-77
2022/11/12 03:50:19;;;;;;;8.83;8.03;;;7.40;93.90;;;;;;5019361;28;20520;-77
2022/11/12 03:52:48;;;;;;;8.67;7.97;;;7.40;94.00;;;;;;5020507;28;20976;-77
2022/11/12 03:55:16;;;;;;;9.40;8.60;;;7.40;93.90;;;;;;5019143;28;20512;-77
2022/11/12 03:57:43;;;;;;;8.70;7.90;;;7.40;93.90;;;;;;5024798;28;20430;-77
2022/11/12 04:00:12;;;;;;;8.43;7.70;;;7.30;94.30;;;;;;5020856;28;20432;-77
2022/11/12 04:02:39;;;;;;;9.65;8.65;;;7.30;93.90;;;;;;5018091;28;20438;-77
2022/11/12 04:10:42;;;;;;;8.83;8.13;;;7.30;93.70;;;;;;5021445;28;20523;-77
2022/11/12 04:24:04;;;;;;;8.75;8.05;;;7.10;94.10;;;;;;5022570;28;20453;-77
2022/11/12 04:26:30;;;;;;;9.50;8.70;;;7.10;94.00;;;;;;5024010;28;20438;-77
2022/11/12 04:31:41;;;;;;;9.68;8.77;;;7.10;94.00;;;;;;5018659;28;20520;-78
2022/11/12 04:36:50;;;;;;;9.07;8.18;;;7.10;94.10;;;;;;5022188;28;20463;-77
2022/11/12 04:39:16;;;;;;;10.03;8.87;;;7.10;94.10;;;;;;5020714;28;20434;-76
2022/11/12 04:47:12;;;;;;;10.00;9.20;;;6.90;94.30;;;;;;5022880;28;20804;-77
2022/11/12 04:49:39;;;;;;;9.93;9.07;;;6.90;94.30;;;;;;5020550;28;20434;-77
2022/11/12 04:52:07;;;;;;;10.45;9.55;;;6.90;94.40;;;;;;5021282;28;20530;-77
2022/11/12 04:54:34;;;;;;;9.40;8.60;;;6.90;94.50;;;;;;5021437;28;20426;-77
2022/11/12 04:57:01;;;;;;;10.60;9.60;;;6.80;94.50;;;;;;5021278;28;20434;-76
2022/11/12 04:59:27;;;;;;;10.07;9.18;;;6.80;94.60;;;;;;5022966;28;20430;-77
2022/11/12 05:01:54;;;;;;;9.90;9.00;;;6.80;94.70;;;;;;5018033;28;20445;-77
2022/11/12 05:04:21;;;;;;;9.45;8.65;;;6.70;94.70;;;;;;5019482;28;20434;-77
2022/11/12 05:06:51;;;;;;;10.35;9.45;;;6.70;94.60;;;;;;5022744;28;20816;-76
2022/11/12 05:09:20;;;;;;;9.77;8.97;;;6.70;94.60;;;;;;5020205;28;20453;-77
2022/11/12 05:11:47;;;;;;;10.40;9.50;;;6.60;94.70;;;;;;5022231;28;20943;-77
2022/11/12 05:14:14;;;;;;;10.50;9.60;;;6.60;94.80;;;;;;5028602;28;20461;-77
2022/11/12 05:16:41;;;;;;;10.02;9.15;;;6.60;94.80;;;;;;5045174;23;20433;-72
2022/11/12 05:19:07;;;;;;;10.27;9.20;;;6.60;94.90;;;;;;5041292;28;20854;-71
2022/11/12 05:24:20;;;;;;;10.13;9.23;;;6.50;95.10;;;;;;5037022;28;20443;-70
2022/11/12 05:26:47;;;;;;;9.80;9.00;;;6.50;95.30;;;;;;5046788;28;20420;-70
2022/11/12 05:29:13;;;;;;;9.18;8.40;;;6.50;95.20;;;;;;5046045;28;20437;-70
2022/11/12 05:31:40;;;;;;;9.90;9.10;;;6.50;95.00;;;;;;5043794;28;20431;-70
2022/11/12 05:34:07;;;;;;;9.75;8.85;;;6.50;95.00;;;;;;5038775;28;20443;-70
2022/11/12 05:36:34;;;;;;;9.98;9.18;;;6.50;95.00;;;;;;5042095;28;20421;-70
2022/11/12 05:39:01;;;;;;;10.80;9.90;;;6.50;94.90;;;;;;5037595;28;20779;-70
2022/11/12 05:41:29;;;;;;;9.77;8.98;;;6.50;94.90;;;;;;5042268;28;20947;-70
2022/11/12 05:43:56;;;;;;;10.90;9.90;;;6.50;95.10;;;;;;5037154;28;20437;-70
2022/11/12 05:46:23;;;;;;;11.00;9.90;;;6.40;95.00;;;;;;5034631;28;20437;-70
2022/11/12 05:48:49;;;;;;;10.50;9.60;;;6.40;95.10;;;;;;5043313;28;20429;-70
2022/11/12 05:51:16;;;;;;;10.63;9.73;;;6.40;95.10;;;;;;5035507;28;20429;-70
2022/11/12 05:53:43;;;;;;;10.30;9.50;;;6.40;95.20;;;;;;5038930;28;20450;-70
2022/11/12 05:56:11;;;;;;;10.80;9.80;;;6.40;95.10;;;;;;5042089;28;20438;-70
2022/11/12 05:58:41;;;;;;;10.20;9.30;;;6.30;94.90;;;;;;5039951;28;20568;-69
2022/11/12 06:01:08;;;;;;;10.65;9.70;;;6.30;95.00;;;;;;5039752;28;20434;-71
2022/11/12 06:03:35;;;;;;;10.90;9.80;;;6.30;94.80;;;;;;5041609;28;20444;-71
2022/11/12 06:06:01;;;;;;;10.85;9.85;;;6.20;94.70;;;;;;5041141;28;20448;-72
2022/11/12 06:08:28;;;;;;;10.13;9.23;;;6.20;94.80;;;;;;5042927;28;20433;-72
2022/11/12 06:10:55;;;;;;;9.90;9.00;;;6.20;94.90;;;;;;5042670;28;20437;-71
2022/11/12 06:13:24;;;;;;;10.23;9.43;;;6.10;94.90;;;;;;5044461;28;20433;-70
2022/11/12 06:15:52;;;;;;;10.60;9.70;;;6.10;94.90;;;;;;5048782;28;20428;-72
2022/11/12 06:18:19;;;;;;;10.50;9.60;;;6.20;95.00;;;;;;5038100;28;20945;-70
2022/11/12 06:21:18;;;;;;;10.93;9.93;;;6.10;94.90;;;;;;5045851;28;20430;-71
2022/11/12 06:23:33;;;;;;;10.60;9.75;;;6.10;95.00;;;;;;5044964;28;20421;-71
2022/11/12 06:25:59;;;;;;;11.10;10.10;;;6.10;94.80;;;;;;5047336;28;20479;-70
2022/11/12 06:28:27;;;;;;;10.18;9.38;;;6.10;94.90;;;;;;5040108;28;20444;-71
2022/11/12 06:30:55;;;;;;;10.80;9.80;;;6.10;94.90;;;;;;5042312;28;20436;-71
2022/11/12 06:33:22;;;;;;;10.20;9.32;;;6.10;95.00;;;;;;5042748;28;20444;-71
2022/11/12 06:36:01;;;;;;;10.40;9.60;;;6.10;95.10;;;;;;5049218;28;20945;-71
2022/11/12 06:38:28;;;;;;;10.40;9.50;;;6.00;95.10;;;;;;5033191;28;20871;-71
2022/11/12 06:40:55;;;;;;;10.73;9.73;;;6.00;95.20;;;;;;5046711;28;21056;-69
2022/11/12 06:43:22;;;;;;;10.00;9.10;;;6.00;95.30;;;;;;5048249;28;20431;-70
2022/11/12 06:45:49;;;;;;;9.93;9.07;;;6.00;95.10;;;;;;5046466;28;20434;-71
2022/11/12 06:48:17;;;;;;;10.18;9.27;;;6.00;95.00;;;;;;5049068;28;20433;-71
2022/11/12 06:50:44;;;;;;;9.60;8.70;;;6.00;95.00;;;;;;5048909;28;20441;-71
2022/11/12 06:53:11;;;;;;;9.70;8.80;;;6.00;94.90;;;;;;5041753;28;20442;-70
2022/11/12 06:55:37;;;;;;;10.00;9.20;;;6.00;94.90;;;;;;5049137;28;20456;-70
2022/11/12 06:58:04;;;;;;;9.40;8.60;;;6.00;94.90;;;;;;5051311;28;20801;-70
2022/11/12 07:00:31;;;;;;;9.43;8.70;;;6.00;95.00;;;;;;5043382;28;20428;-70
2022/11/12 07:02:58;;;;;;;9.98;9.00;;;6.10;94.90;;;;;;5050545;28;20441;-67
2022/11/12 07:05:26;;;;;;;9.70;8.90;;;6.00;94.90;;;;;;5043947;28;20442;-71
2022/11/12 07:07:54;;;;;;;9.40;8.50;;;6.10;94.90;;;;;;5043756;28;20445;-71
2022/11/12 07:10:21;;;;;;;9.50;8.60;;;6.10;94.80;;;;;;5046876;28;20425;-70
2022/11/12 07:12:48;;;;;;;8.95;8.25;;;6.10;94.50;;;;;;5040861;28;21105;-70
2022/11/12 07:15:14;;;;;;;9.50;8.50;;;6.10;94.40;;;;;;5046052;28;20437;-70
2022/11/12 07:17:45;;;;;;;9.20;8.30;;;6.10;94.30;;;;;;5036068;28;20440;-71
2022/11/12 07:20:12;;;;;;;9.40;8.60;;;6.10;94.40;;;;;;5044606;28;20421;-70
2022/11/12 07:22:40;;;;;;;9.75;8.80;;;6.10;94.40;;;;;;5041041;28;20433;-69
2022/11/12 07:25:07;;;;;;;9.10;8.20;;;6.00;94.50;;;;;;5043557;28;20448;-69
2022/11/12 07:27:34;;;;;;;8.97;8.07;;;6.10;94.40;;;;;;5047825;28;20432;-69
2022/11/12 07:30:01;;;;;;;9.27;8.38;;;6.10;94.50;;;;;;5038652;28;20429;-69
2022/11/12 07:32:28;;;;;;;9.40;8.50;;;6.20;94.50;;;;;;5038631;28;20433;-69
2022/11/12 07:34:54;;;;;;;9.82;8.93;;;6.20;94.30;;;;;;5041046;28;20449;-69
2022/11/12 07:37:21;;;;;;;8.63;7.83;;;6.20;94.30;;;;;;5041012;28;20928;-68
2022/11/12 07:39:49;;;;;;;9.30;8.50;;;6.30;94.30;;;;;;5037662;28;20435;-69
2022/11/12 07:42:16;;;;;;;8.70;7.90;;;6.40;94.20;;;;;;5037509;28;20502;-71
2022/11/12 07:44:43;;;;;;;8.50;7.80;;;6.50;93.90;;;;;;5039288;28;20454;-69
2022/11/12 07:47:10;;;;;;;8.77;7.97;;;6.60;93.50;;;;;;5048696;28;20435;-71
2022/11/12 07:49:37;;;;;;;9.10;8.30;;;6.70;93.20;;;;;;5041875;28;20442;-69
2022/11/12 07:52:04;;;;;;;8.60;7.80;;;6.90;92.80;;;;;;5042738;28;20440;-74
2022/11/12 07:54:31;;;;;;;8.70;7.90;;;7.00;92.40;;;;;;5038106;28;20805;-70
2022/11/12 07:56:59;;;;;;;8.38;7.68;;;7.00;92.10;;;;;;5037438;28;20444;-71
2022/11/12 07:59:26;;;;;;;8.98;8.18;;;7.00;91.90;;;;;;5042311;28;20429;-70
2022/11/12 08:01:52;;;;;;;7.80;7.10;;;7.10;92.00;;;;;;5042189;28;20461;-71
2022/11/12 08:04:19;;;;;;;8.00;7.30;;;7.30;91.80;;;;;;5047821;28;20455;-72
2022/11/12 08:06:46;;;;;;;7.70;7.00;;;7.50;91.40;;;;;;5043698;28;20442;-70
2022/11/12 08:09:13;;;;;;;6.97;6.45;;;7.70;90.70;;;;;;5040045;28;20446;-70
2022/11/12 08:11:40;;;;;;;7.30;6.70;;;7.90;90.10;;;;;;5047011;28;20519;-72
2022/11/12 08:14:09;;;;;;;7.03;6.32;;;8.10;88.60;;;;;;5042889;28;20933;-71
2022/11/12 08:16:35;;;;;;;7.30;6.70;;;8.20;88.30;;;;;;5041967;28;20450;-71
2022/11/12 08:19:02;;;;;;;7.27;6.57;;;8.40;87.60;;;;;;5040420;28;20539;-71
2022/11/12 08:21:29;;;;;;;7.50;6.80;;;8.60;86.30;;;;;;5042687;28;20439;-70
2022/11/12 08:23:55;;;;;;;7.20;6.50;;;8.70;85.00;;;;;;5044241;28;20452;-68
2022/11/12 08:26:22;;;;;;;7.13;6.28;;;8.80;84.60;;;;;;5040032;28;20433;-70
2022/11/12 08:28:49;;;;;;;6.80;6.20;;;9.00;83.60;;;;;;5046995;28;20421;-71
2022/11/12 08:31:19;;;;;;;6.60;6.00;;;9.20;83.30;;;;;;5049834;28;20427;-70
2022/11/12 08:33:46;;;;;;;6.60;6.10;;;9.30;82.20;;;;;;5048325;28;20953;-71
2022/11/12 08:36:15;;;;;;;6.63;6.13;;;9.50;81.40;;;;;;5047724;28;20430;-71
2022/11/12 08:38:42;;;;;;;6.07;5.57;;;9.60;80.80;;;;;;5040689;28;20434;-70
2022/11/12 08:41:11;;;;;;;6.80;6.20;;;9.80;80.50;;;;;;5042238;28;20437;-72
2022/11/12 08:43:39;;;;;;;6.38;5.78;;;10.00;80.70;;;;;;5041428;28;20417;-72
2022/11/12 08:46:06;;;;;;;6.70;6.00;;;10.20;78.50;;;;;;5040922;28;20441;-71
2022/11/12 08:48:35;;;;;;;6.70;6.10;;;10.30;78.50;;;;;;5042627;28;20515;-73
2022/11/12 08:51:02;;;;;;;6.93;6.13;;;10.50;77.80;;;;;;5046126;28;20904;-71
2022/11/12 08:53:29;;;;;;;6.43;5.72;;;10.70;76.80;;;;;;5040365;28;20415;-73
2022/11/12 08:55:56;;;;;;;6.57;6.00;;;10.90;75.70;;;;;;5042467;28;20425;-71
2022/11/12 08:58:23;;;;;;;6.70;6.00;;;11.10;74.50;;;;;;5047549;28;20787;-71
2022/11/12 09:00:51;;;;;;;7.75;5.90;;;11.10;74.50;;;;;;5043795;28;20409;-71
2022/11/12 09:03:19;;;;;;;6.97;6.28;;;11.20;74.50;;;;;;5034117;28;20439;-72
2022/11/12 09:05:48;;;;;;;6.10;5.50;;;11.40;73.40;;;;;;5043769;28;20501;-72
2022/11/12 09:08:18;;;;;;;5.80;5.30;;;11.40;72.80;;;;;;5039005;28;20434;-71
2022/11/12 09:10:45;;;;;;;5.88;5.47;;;11.40;73.00;;;;;;5045492;28;20443;-72
2022/11/12 09:13:12;;;;;;;5.60;5.10;;;11.40;73.00;;;;;;5042175;28;20467;-70
2022/11/12 09:15:39;;;;;;;6.47;5.80;;;11.40;72.90;;;;;;5039916;28;20464;-70
2022/11/12 09:18:10;;;;;;;6.10;5.60;;;11.60;72.90;;;;;;5036667;28;20433;-70
2022/11/12 09:20:37;;;;;;;5.55;5.15;;;11.80;71.70;;;;;;5042616;28;20803;-67
2022/11/12 09:23:07;;;;;;;5.82;5.32;;;12.00;71.70;;;;;;5045256;28;20421;-70
2022/11/12 09:25:35;;;;;;;6.00;5.50;;;12.00;70.50;;;;;;5041611;28;20862;-72
2022/11/12 09:28:07;;;;;;;5.53;5.07;;;12.10;71.10;;;;;;5041596;28;20524;-70
2022/11/12 09:30:34;;;;;;;6.45;5.75;;;12.30;70.60;;;;;;5036310;28;20439;-72
2022/11/12 09:33:01;;;;;;;6.30;5.70;;;12.50;69.30;;;;;;5033551;28;20938;-72
2022/11/12 09:35:28;;;;;;;6.95;5.35;;;12.50;68.80;;;;;;5040755;28;20878;-71
2022/11/12 09:37:55;;;;;;;5.13;4.78;;;12.70;68.60;;;;;;5060941;28;20428;-74
2022/11/12 09:40:42;;;;;;;5.43;5.03;;;12.80;68.00;;;;;;5050449;28;20514;-73
2022/11/12 09:43:18;;;;;;;6.07;5.57;;;12.70;68.40;;;;;;5056389;28;20421;-72
2022/11/12 09:45:47;;;;;;;5.30;4.88;;;12.60;68.20;;;;;;5040501;28;20789;-72
2022/11/12 09:48:20;;;;;;;5.03;4.60;;;12.60;69.00;;;;;;5045079;28;20531;-73
2022/11/12 09:50:55;;;;;;;5.05;4.55;;;12.80;68.30;;;;;;5042297;28;20427;-73
2022/11/12 09:53:30;;;;;;;5.32;4.82;;;12.90;67.70;;;;;;5038978;28;20418;-72
2022/11/12 09:55:58;;;;;;;5.30;4.90;;;12.90;67.10;;;;;;5039964;28;20463;-75
2022/11/12 09:58:25;;;;;;;7.23;5.00;;;12.80;67.80;;;;;;5045253;28;20509;-74
2022/11/12 10:00:56;;;;;;;5.22;4.72;;;12.70;68.40;;;;;;5039936;28;20436;-73
2022/11/12 10:03:36;;;;;;;5.32;4.93;;;12.70;68.50;;;;;;5045725;28;20440;-73
2022/11/12 10:06:09;;;;;;;5.20;4.80;;;13.00;68.20;;;;;;5053853;28;20424;-73
2022/11/12 10:08:44;;;;;;;5.90;4.70;;;13.20;67.50;;;;;;5041243;28;20427;-73
2022/11/12 10:11:28;;;;;;;5.10;4.70;;;13.50;66.30;;;;;;5049840;28;20429;-73
2022/11/12 10:14:07;;;;;;;4.87;4.47;;;13.50;65.80;;;;;;5043024;28;20417;-74
2022/11/12 10:16:49;;;;;;;5.00;4.60;;;13.50;66.60;;;;;;5050693;28;20424;-73
2022/11/12 10:19:32;;;;;;;5.47;4.95;;;13.70;66.00;;;;;;5043781;28;20423;-71
2022/11/12 10:22:11;;;;;;;5.03;4.63;;;13.80;66.50;;;;;;5052036;28;20424;-72
2022/11/12 10:24:40;;;;;;;5.22;4.82;;;14.10;65.20;;;;;;5053573;28;20444;-73
2022/11/12 10:27:16;;;;;;;5.60;4.90;;;14.30;64.00;;;;;;5044718;28;20533;-72
2022/11/12 10:29:49;;;;;;;5.28;4.80;;;14.40;63.70;;;;;;5047873;28;20424;-73
2022/11/12 10:32:16;;;;;;;5.00;4.60;;;14.70;63.00;;;;;;5043578;28;20431;-72
2022/11/12 10:34:43;;;;;;;5.30;4.90;;;14.90;62.00;;;;;;5038297;28;20439;-73
2022/11/12 10:37:14;;;;;;;5.30;4.90;;;14.80;62.10;;;;;;5046676;28;20438;-72
2022/11/12 10:39:46;;;;;;;5.23;4.83;;;14.80;61.90;;;;;;5046471;28;20922;-73
2022/11/12 10:42:16;;;;;;;5.30;4.90;;;14.60;62.60;;;;;;5048872;28;20808;-71
2022/11/12 10:44:43;;;;;;;5.17;4.70;;;14.50;63.40;;;;;;5052880;28;20429;-72
2022/11/12 10:47:21;;;;;;;5.40;4.90;;;14.60;62.60;;;;;;5044380;28;20429;-72
2022/11/12 10:50:05;;;;;;;4.95;4.60;;;14.50;62.90;;;;;;5048706;28;20436;-72
2022/11/12 10:52:32;;;;;;;4.90;4.50;;;14.40;63.70;;;;;;5047815;28;20722;-73
2022/11/12 10:55:15;;;;;;;5.40;4.90;;;14.50;63.40;;;;;;5050841;28;20459;-72
2022/11/12 10:57:43;;;;;;;5.20;4.80;;;14.60;63.40;;;;;;5051530;28;20433;-72
2022/11/12 11:00:20;;;;;;;4.70;4.40;;;14.40;63.60;;;;;;5050201;28;20854;-68
2022/11/12 11:02:49;;;;;;;5.82;5.20;;;14.20;64.00;;;;;;5057285;28;20437;-65
2022/11/12 11:05:31;;;;;;;5.07;4.68;;;14.10;65.20;;;;;;5050269;28;21925;-69
2022/11/12 11:07:58;;;;;;;5.63;4.72;;;14.10;65.10;;;;;;5048310;28;20445;-69
2022/11/12 11:10:27;;;;;;;5.10;4.60;;;14.10;65.20;;;;;;5056223;28;20444;-70
2022/11/12 11:13:20;;;;;;;5.90;5.40;;;14.20;65.20;;;;;;5049524;28;21064;-69
2022/11/12 11:16:00;;;;;;;5.00;4.57;;;14.20;65.40;;;;;;5049137;28;20433;-69
2022/11/12 11:18:28;;;;;;;5.30;4.90;;;14.30;65.60;;;;;;5048105;28;20429;-69
2022/11/12 11:21:06;;;;;;;5.32;4.82;;;14.30;64.80;;;;;;5046817;28;20435;-69
2022/11/12 11:23:42;;;;;;;5.45;4.90;;;14.20;65.10;;;;;;5042841;28;20483;-69
2022/11/12 11:26:32;;;;;;;5.50;5.00;;;14.30;65.80;;;;;;5046858;28;20446;-69
2022/11/12 11:29:27;;;;;;;5.20;4.80;;;14.40;65.40;;;;;;5042429;28;20437;-69
2022/11/12 11:32:01;;;;;;;5.35;4.95;;;14.40;65.70;;;;;;5041690;28;20458;-70
2022/11/12 11:34:37;;;;;;;5.20;4.72;;;14.60;65.00;;;;;;5044236;28;20463;-69
2022/11/12 11:37:22;;;;;;;5.60;5.10;;;14.70;64.80;;;;;;5059614;28;20421;-69
2022/11/12 11:39:57;;;;;;;5.60;5.10;;;14.80;64.40;;;;;;5062482;28;20417;-70
2022/11/12 11:42:57;;;;;;;5.70;5.20;;;14.90;64.30;;;;;;5068222;28;20435;-71
2022/11/12 11:45:55;;;;;;;5.47;4.97;;;15.10;64.00;;;;;;5064056;28;20500;-72
2022/11/12 11:48:31;;;;;;;5.55;5.05;;;15.10;63.70;;;;;;5053386;28;20431;-71
2022/11/12 11:51:02;;;;;;;5.45;5.05;;;15.10;63.50;;;;;;5045735;28;20969;-70
2022/11/12 11:53:36;;;;;;;5.22;4.72;;;15.20;63.50;;;;;;5042523;28;20437;-70
2022/11/12 11:56:09;;;;;;;5.80;5.30;;;15.40;63.60;;;;;;5045317;28;20421;-70
2022/11/12 11:59:12;;;;;;;5.40;4.90;;;15.50;62.90;;;;;;5043058;28;20436;-70
2022/11/12 12:02:00;;;;;;;5.63;5.13;;;15.50;63.00;;;;;;5032158;28;20432;-71
2022/11/12 12:04:42;;;;;;;5.57;5.07;;;15.60;63.00;;;;;;5047435;28;20440;-70
2022/11/12 12:07:21;;;;;;;5.32;4.93;;;15.70;62.50;;;;;;5043135;28;20446;-70
2022/11/12 12:09:54;;;;;;;5.63;5.13;;;15.90;62.30;;;;;;5037942;28;20426;-70
2022/11/12 12:12:37;;;;;;;5.47;4.90;;;16.00;61.80;;;;;;5038693;28;20864;-70
2022/11/12 12:15:28;;;;;;;5.20;4.70;;;16.30;60.90;;;;;;5045413;28;20437;-71
2022/11/12 12:18:06;;;;;;;5.00;4.60;;;16.50;60.60;;;;;;5019570;28;20436;-71
2022/11/12 12:20:41;;;;;;;5.03;4.63;;;16.80;59.50;;;;;;5039263;28;20437;-70
2022/11/12 12:23:19;;;;;;;4.80;4.40;;;17.00;59.00;;;;;;5047029;28;20437;-71
2022/11/12 12:25:48;;;;;;;5.30;4.80;;;17.20;58.60;;;;;;5046818;28;20780;-71
2022/11/12 12:28:24;;;;;;;5.38;4.88;;;17.30;58.10;;;;;;5042472;28;20436;-72
2022/11/12 12:30:56;;;;;;;5.70;4.53;;;17.50;57.90;;;;;;5045913;28;20444;-70
2022/11/12 12:33:30;;;;;;;5.20;4.80;;;17.80;57.40;;;;;;5030371;28;20441;-70
2022/11/12 12:36:02;;;;;;;5.13;4.72;;;18.10;56.10;;;;;;5043909;28;20967;-71
2022/11/12 12:38:37;;;;;;;5.00;4.60;;;18.40;55.40;;;;;;5038714;28;20424;-72
2022/11/12 12:41:12;;;;;;;4.80;4.40;;;18.50;54.80;;;;;;5040099;28;20441;-70
2022/11/12 12:43:45;;;;;;;4.63;4.22;;;18.60;54.70;;;;;;5038424;28;20437;-64
2022/11/12 12:46:14;;;;;;;5.03;4.05;;;18.70;54.10;;;;;;5047385;28;20436;-63
2022/11/12 12:48:44;;;;;;;4.40;4.00;;;18.70;54.40;;;;;;5044913;28;21428;-66
2022/11/12 12:51:12;;;;;;;4.80;4.40;;;18.70;55.00;;;;;;5034536;28;20434;-64
2022/11/12 12:53:39;;;;;;;4.50;4.10;;;18.70;54.60;;;;;;5065092;28;20423;-76
2022/11/12 12:56:27;;;;;;;4.40;4.00;;;18.60;55.00;;;;;;5047083;28;20522;-76
2022/11/12 12:58:54;;;;;;;4.38;3.97;;;18.60;54.40;;;;;;5042017;28;21158;-71
2022/11/12 13:01:30;;;;;;;4.80;4.40;;;18.40;54.70;;;;;;5031938;28;20441;-65
2022/11/12 13:04:02;;;;;;;4.85;4.18;;;18.30;55.90;;;;;;5038492;28;20498;-64
2022/11/12 13:06:32;;;;;;;4.90;4.50;;;18.30;55.60;;;;;;5042704;28;20436;-65
2022/11/12 13:09:05;;;;;;;5.07;4.68;;;18.20;56.00;;;;;;5036261;28;20437;-67
2022/11/12 13:15:06;;;;;;;5.22;4.63;;;17.80;57.90;;;;;;5041440;28;20478;-65
2022/11/12 13:17:52;;;;;;;5.15;4.65;;;17.80;58.80;;;;;;5036203;28;20429;-64
2022/11/12 13:20:34;;;;;;;5.20;4.80;;;17.70;58.00;;;;;;5044538;28;20438;-66
2022/11/12 13:23:02;;;;;;;4.60;4.20;;;17.70;57.30;;;;;;5050421;28;20429;-68
2022/11/12 13:25:30;;;;;;;4.95;4.05;;;17.80;57.10;;;;;;5045741;28;20438;-72
2022/11/12 13:28:08;;;;;;;4.88;4.35;;;17.90;56.90;;;;;;5048788;28;20439;-70
2022/11/12 13:31:04;;;;;;;4.70;4.30;;;18.30;56.30;;;;;;5048987;28;20433;-70
2022/11/12 13:33:33;;;;;;;4.20;3.90;;;18.40;55.20;;;;;;5040866;28;20453;-74
2022/11/12 13:36:35;;;;;;;4.25;3.95;;;18.40;55.50;;;;;;5050568;28;20998;-70
2022/11/12 13:39:13;;;;;;;4.73;4.23;;;18.30;55.10;;;;;;4997723;28;20436;-76
2022/11/12 13:44:26;;;;;;;4.55;4.15;;;18.00;56.60;;;;;;5027398;28;20422;-73